Ernesto Cortissoz International Airport
SKBQ : rendu visible

Aérodrome :











RETROUVEZ-NOUS SUR...

 
LOGIN :

S'inscrire | Disclaimer

   EN    FR    IT 

 









Légende :    VFR   VFR Marginal   IFR   IFR Intensif   IFR Très Intensif
Visi : 
Plafond : 
>= 8 km
>= 3000ft
5 à 8 km
1000 à 3000 ft
1500m à 5 km
500 à 1000 ft
800 à 1500m
200 à 500 ft
< 800m
< 200 ft
Symboles :   Orages  Brouillard  Fortes neiges  Fortes précipitations  Vent > 20 kt






- Altitude de l'aérodrome : 98 ft
- Code IATA : BAQ


SKBQ - Ernesto Cortissoz International

DERNIER METAR :
  • 281600Z 06005KT 020V120 9999 SCT017 SCT200 29/24 A2994 NOSIG

METARs EXPIRÉS :
  • 281500Z 06007KT 020V080 9999 BKN016 28/24 A2995 NOSIG
  • 281400Z 04008KT 340V050 9999 SCT015 28/24 A2995 NOSIG

TAF TAF SKBQ
Valide du 28 à 12h jusqu'au 29 à 12h UTC


281030Z 2812/2912 35005KT 9999 FEW015
BECMG 2815/2817 03015KT
BECMG 2905/2907 36004KT TX32/2817Z TN25/2911Z



MET'MAP, la Météo Aéronautique d'un coup d'oeil ! - Copyright ORBIFLY Décembre 2007 - Disclaimer

ORBIFLY MET'MAP TEAM :

Programmation & Développement : Alexandra Zaïnal
Sur une idée originale de : Baudouin d'Aumeries
Assistance à la programmation : Marc-Olivier Méhu
Soutien technique & logistique : Manuel Goepfert

Contact : metmap@orbifly.com




SOURCES & CREDITS :

   NOAA       Earth
Advisory